Impacts TAF Board INFO
FOR SITUATIONAL AWARENESS. NOT TO BE USED FOR FLIGHT PLANNING PURPOSES.
IDs:

KPHL - Philadelphia Intl, PA, US

Issued at 2328 UTC 17 Dec 2017
Updated at 2331 UTC 17 Dec 2017
Potential Impact None Slight Moderate High
Time2254Z 18/00Z 18/01Z 18/02Z 18/03Z 18/04Z 18/05Z 18/06Z 18/07Z 18/08Z 18/09Z 18/10Z 18/11Z 18/12Z>>
Type OBS PRVL PRVL PRVL PRVL PRVL PRVL PRVL PRVL PRVL PRVL PRVL PRVL PRVL
VIS 10 >6 >6 >6 >6 >6 >6 >6 >6 >6 >6 >6 >6 >6
CIG 180 100 100 100 100 100 100 35 35 35 35 35 35 35
Cover OVC OVC OVC OVC OVC OVC OVC OVC OVC OVC OVC OVC OVC OVC
FltCat VFR VFR VFR VFR VFR VFR VFR VFR VFR VFR VFR VFR VFR VFR
WX -- -- -- -- -- -- -- -- -- -- -- -- -- --
WDir 60 30 30 30 30 30 30 VRB VRB VRB VRB VRB VRB VRB
WSpd 4 4 4 4 4 4 4 3 3 3 3 3 3 3
WGst -- -- -- -- -- -- -- -- -- -- -- -- -- --

Raw TAF
KPHL 172328Z 1800/1906 03004KT P6SM OVC100
  FM180600 VRB03KT P6SM OVC035
  FM181300 26004KT P6SM BKN060
  FM190000 24005KT P6SM BKN035
  FM190400 25005KT P6SM SCT040


Raw METAR
KPHL 172254Z 06004KT 10SM BKN180 OVC250 05/M02 A3024 RMK AO2 SLP239 T00501017 $
KPHL 172154Z 04004KT 10SM BKN180 OVC250 06/M02 A3022 RMK AO2 SLP233 T00561017 $
KPHL 172054Z 00000KT 10SM BKN180 OVC260 06/M02 A3022 RMK AO2 SLP232 T00611022 55008 $

METAR Board
Radar Display
Forecast Discussion

FOR SITUATIONAL AWARENESS. NOT TO BE USED FOR FLIGHT PLANNING PURPOSES.